createdAt,value
2018-08-20T00:00:10.010Z,1007.25
2018-08-20T00:01:10.018Z,1007.22
2018-08-20T00:02:10.029Z,1007.24
2018-08-20T00:03:10.034Z,1007.21
2018-08-20T00:04:10.037Z,1007.19
2018-08-20T00:05:10.038Z,1007.20
2018-08-20T00:06:10.041Z,1007.18
2018-08-20T00:07:20.390Z,1007.16
2018-08-20T00:09:04.461Z,1007.18
2018-08-20T00:10:04.437Z,1007.17
2018-08-20T00:11:04.452Z,1007.13
2018-08-20T00:12:04.456Z,1007.15
2018-08-20T00:13:04.460Z,1007.15
2018-08-20T00:14:04.469Z,1007.16
2018-08-20T00:15:04.465Z,1007.17
2018-08-20T00:16:04.471Z,1007.12
2018-08-20T00:17:04.472Z,1007.14
2018-08-20T00:18:04.475Z,1007.19
2018-08-20T00:19:04.486Z,1007.12
2018-08-20T00:20:04.500Z,1007.16
2018-08-20T00:21:04.500Z,1007.14
2018-08-20T00:22:04.501Z,1007.11
2018-08-20T00:23:04.500Z,1007.13
2018-08-20T00:24:04.510Z,1007.10
2018-08-20T00:25:04.510Z,1007.12
2018-08-20T00:26:04.522Z,1007.12
2018-08-20T00:27:04.521Z,1007.12
2018-08-20T00:28:04.527Z,1007.13
2018-08-20T00:29:04.536Z,1007.15
2018-08-20T00:30:04.544Z,1007.12
2018-08-20T00:31:04.556Z,1007.12
2018-08-20T00:32:04.580Z,1007.13
2018-08-20T00:33:04.544Z,1007.12
2018-08-20T00:34:04.564Z,1007.13
2018-08-20T00:35:04.576Z,1007.09
2018-08-20T00:36:04.568Z,1007.10
2018-08-20T00:37:04.566Z,1007.14
2018-08-20T00:38:04.578Z,1007.15
2018-08-20T00:39:04.576Z,1007.16
2018-08-20T00:40:04.597Z,1007.13
2018-08-20T00:41:04.582Z,1007.13
2018-08-20T00:42:04.591Z,1007.10
2018-08-20T00:43:04.596Z,1007.13
2018-08-20T00:44:04.598Z,1007.15
2018-08-20T00:45:04.620Z,1007.13
2018-08-20T00:46:04.615Z,1007.10
2018-08-20T00:47:04.623Z,1007.09
2018-08-20T00:48:04.621Z,1007.13
2018-08-20T00:49:04.639Z,1007.11
2018-08-20T00:50:04.640Z,1007.13
2018-08-20T00:51:04.645Z,1007.14
2018-08-20T00:52:04.639Z,1007.14
2018-08-20T00:53:04.635Z,1007.14
2018-08-20T00:54:04.645Z,1007.13
2018-08-20T00:55:04.649Z,1007.16
2018-08-20T00:56:04.654Z,1007.20
2018-08-20T00:57:04.656Z,1007.21
2018-08-20T00:58:04.667Z,1007.15
2018-08-20T00:59:04.670Z,1007.20
2018-08-20T01:00:04.671Z,1007.14
2018-08-20T01:01:04.695Z,1007.18
2018-08-20T01:02:04.701Z,1007.17
2018-08-20T01:03:04.688Z,1007.20
2018-08-20T01:04:04.694Z,1007.18
2018-08-20T01:05:04.706Z,1007.15
2018-08-20T01:06:04.717Z,1007.15
2018-08-20T01:07:04.707Z,1007.12
2018-08-20T01:08:04.748Z,1007.10
2018-08-20T01:09:04.718Z,1007.11
2018-08-20T01:10:04.727Z,1007.10
2018-08-20T01:11:04.720Z,1007.08
2018-08-20T01:12:04.749Z,1007.07
2018-08-20T01:13:04.737Z,1007.04
2018-08-20T01:14:04.756Z,1007.07
2018-08-20T01:15:04.748Z,1007.09
2018-08-20T01:16:04.755Z,1007.05
2018-08-20T01:17:04.778Z,1007.05
2018-08-20T01:18:04.750Z,1007.04
2018-08-20T01:19:04.756Z,1007.01
2018-08-20T01:20:04.759Z,1007.03
2018-08-20T01:21:04.769Z,1007.00
2018-08-20T01:22:04.766Z,1007.00
2018-08-20T01:23:04.808Z,1007.00
2018-08-20T01:24:04.789Z,1007.02
2018-08-20T01:25:04.783Z,1007.00
2018-08-20T01:26:04.795Z,1006.98
2018-08-20T01:27:04.802Z,1007.01
2018-08-20T01:28:04.799Z,1007.00
2018-08-20T01:29:04.812Z,1007.01
2018-08-20T01:30:04.813Z,1006.98
2018-08-20T01:31:04.807Z,1007.01
2018-08-20T01:32:04.814Z,1007.00
2018-08-20T01:33:04.822Z,1006.98
2018-08-20T01:34:04.820Z,1006.99
2018-08-20T01:35:04.830Z,1006.97
2018-08-20T01:36:04.829Z,1007.01
2018-08-20T01:37:04.835Z,1006.94
2018-08-20T01:38:04.839Z,1006.96
2018-08-20T01:39:04.870Z,1006.98
2018-08-20T01:40:04.858Z,1006.96
2018-08-20T01:41:04.858Z,1007.01
2018-08-20T01:42:04.859Z,1006.99
2018-08-20T01:43:04.874Z,1007.04
2018-08-20T01:44:04.886Z,1006.99
2018-08-20T01:45:04.888Z,1007.01
2018-08-20T01:46:04.876Z,1006.99
2018-08-20T01:47:04.882Z,1007.00
2018-08-20T01:48:04.899Z,1006.99
2018-08-20T01:50:25.928Z,1006.98
2018-08-20T01:51:25.933Z,1007.01
2018-08-20T01:52:25.996Z,1007.00
2018-08-20T01:53:25.941Z,1007.00
2018-08-20T01:54:25.938Z,1007.02
2018-08-20T01:55:25.941Z,1007.06
2018-08-20T01:56:25.936Z,1007.04
2018-08-20T01:57:25.950Z,1007.02
2018-08-20T01:58:25.947Z,1007.03
2018-08-20T01:59:25.956Z,1007.03
2018-08-20T02:00:25.963Z,1006.99
2018-08-20T02:01:25.972Z,1007.01
2018-08-20T02:02:25.983Z,1007.01
2018-08-20T02:03:25.983Z,1007.00
2018-08-20T02:04:25.979Z,1006.99
2018-08-20T02:05:25.996Z,1007.01
2018-08-20T02:06:25.991Z,1007.01
2018-08-20T02:07:26.009Z,1007.02
2018-08-20T02:08:26.012Z,1007.02
2018-08-20T02:09:26.000Z,1006.99
2018-08-20T02:10:26.041Z,1007.01
2018-08-20T02:11:26.009Z,1007.00
2018-08-20T02:12:26.007Z,1007.03
2018-08-20T02:13:26.018Z,1007.05
2018-08-20T02:14:26.018Z,1007.03
2018-08-20T02:15:26.017Z,1007.03
2018-08-20T02:16:26.048Z,1007.06
2018-08-20T02:17:26.031Z,1007.05
2018-08-20T02:18:26.036Z,1007.02
2018-08-20T02:19:26.037Z,1007.03
2018-08-20T02:20:26.043Z,1007.04
2018-08-20T02:21:26.045Z,1007.01
2018-08-20T02:22:26.045Z,1007.04
2018-08-20T02:23:26.060Z,1007.03
2018-08-20T02:24:26.059Z,1007.01
2018-08-20T02:25:26.061Z,1007.00
2018-08-20T02:26:26.066Z,1006.99
2018-08-20T02:27:26.073Z,1006.97
2018-08-20T02:28:26.101Z,1006.98
2018-08-20T02:29:26.083Z,1007.00
2018-08-20T02:30:26.089Z,1006.98
2018-08-20T02:31:26.085Z,1007.00
2018-08-20T02:32:26.117Z,1007.04
2018-08-20T02:33:26.115Z,1007.00
2018-08-20T02:34:26.129Z,1007.01
2018-08-20T02:35:26.101Z,1007.00
2018-08-20T02:36:26.138Z,1006.99
2018-08-20T02:37:26.153Z,1007.01
2018-08-20T02:38:26.116Z,1006.98
2018-08-20T02:39:26.142Z,1007.00
2018-08-20T02:40:26.133Z,1007.02
2018-08-20T02:41:26.140Z,1006.99
2018-08-20T02:42:26.159Z,1006.98
2018-08-20T02:43:26.152Z,1006.99
2018-08-20T02:44:26.162Z,1007.00
2018-08-20T02:45:26.176Z,1006.98
2018-08-20T02:46:26.190Z,1007.00
2018-08-20T02:47:26.157Z,1007.00
2018-08-20T02:48:26.182Z,1007.00
2018-08-20T02:49:26.192Z,1007.01
2018-08-20T02:50:26.184Z,1007.02
2018-08-20T02:51:26.169Z,1007.06
2018-08-20T02:52:26.194Z,1007.02
2018-08-20T02:53:26.178Z,1007.03
2018-08-20T02:54:26.205Z,1007.02
2018-08-20T02:55:26.187Z,1007.01
2018-08-20T03:14:10.496Z,1007.02
2018-08-20T03:15:10.492Z,1007.05
2018-08-20T03:16:10.512Z,1007.01
2018-08-20T03:17:10.482Z,1007.02
2018-08-20T03:18:10.513Z,1007.03
2018-08-20T03:19:10.486Z,1007.03
2018-08-20T03:20:10.499Z,1007.00
2018-08-20T03:21:10.483Z,1006.98
2018-08-20T03:22:10.508Z,1007.01
2018-08-20T03:23:10.516Z,1007.04
2018-08-20T03:24:10.537Z,1007.02
2018-08-20T03:25:10.535Z,1007.03
2018-08-20T03:26:10.494Z,1007.00
2018-08-20T03:27:10.512Z,1007.03
2018-08-20T03:28:10.532Z,1007.01
2018-08-20T03:29:10.513Z,1006.96
2018-08-20T03:30:10.532Z,1006.99
2018-08-20T03:31:10.512Z,1007.01
2018-08-20T03:32:10.561Z,1007.03
2018-08-20T03:33:10.547Z,1007.02
2018-08-20T03:34:10.528Z,1007.02
2018-08-20T03:35:10.525Z,1006.99
2018-08-20T03:36:10.600Z,1006.98
2018-08-20T03:37:10.560Z,1006.99
2018-08-20T03:38:10.572Z,1006.98
2018-08-20T03:39:10.538Z,1007.00
2018-08-20T03:40:10.564Z,1006.94
2018-08-20T03:41:10.546Z,1006.96
2018-08-20T03:42:10.547Z,1006.94
2018-08-20T03:43:10.563Z,1006.93
2018-08-20T03:44:10.555Z,1006.96
2018-08-20T03:45:10.574Z,1007.01
2018-08-20T03:46:10.570Z,1007.00
2018-08-20T03:47:10.620Z,1007.01
2018-08-20T03:48:10.592Z,1007.01
2018-08-20T03:49:10.575Z,1007.01
2018-08-20T03:50:10.599Z,1007.00
2018-08-20T03:51:10.608Z,1007.00
2018-08-20T03:52:10.590Z,1006.99
2018-08-20T03:53:10.671Z,1006.98
2018-08-20T03:54:10.612Z,1006.99
2018-08-20T03:55:10.648Z,1006.99
2018-08-20T03:56:10.635Z,1006.99
2018-08-20T03:57:10.609Z,1006.99
2018-08-20T03:58:10.604Z,1007.04
2018-08-20T03:59:10.628Z,1007.00
2018-08-20T04:00:10.620Z,1006.99
2018-08-20T04:01:10.647Z,1006.99
2018-08-20T04:02:10.698Z,1007.00
2018-08-20T04:03:10.663Z,1006.97
2018-08-20T04:04:10.657Z,1006.97
2018-08-20T04:05:10.685Z,1006.94
2018-08-20T04:06:10.659Z,1006.95
2018-08-20T04:07:10.690Z,1006.90
2018-08-20T04:08:10.688Z,1006.89
2018-08-20T04:09:10.727Z,1006.88
2018-08-20T04:10:10.673Z,1006.89
2018-08-20T04:11:10.738Z,1006.89
2018-08-20T04:12:10.691Z,1006.87
2018-08-20T04:13:10.698Z,1006.86
2018-08-20T04:14:10.695Z,1006.87
2018-08-20T04:15:10.706Z,1006.86
2018-08-20T04:16:10.674Z,1006.86
2018-08-20T04:17:10.690Z,1006.88
2018-08-20T04:18:10.729Z,1006.84
2018-08-20T04:19:10.678Z,1006.83
2018-08-20T04:20:10.734Z,1006.86
2018-08-20T04:21:10.744Z,1006.85
2018-08-20T04:22:10.719Z,1006.83
2018-08-20T04:23:10.815Z,1006.88
2018-08-20T04:24:10.716Z,1006.84
2018-08-20T04:25:10.736Z,1006.88
2018-08-20T04:26:10.696Z,1006.88
2018-08-20T04:27:10.781Z,1006.92
2018-08-20T04:28:10.741Z,1006.87
2018-08-20T04:29:10.719Z,1006.91
2018-08-20T04:30:10.766Z,1006.95
2018-08-20T04:31:10.761Z,1006.92
2018-08-20T04:32:10.776Z,1006.92
2018-08-20T04:33:10.728Z,1006.95
2018-08-20T04:34:10.785Z,1006.93
2018-08-20T04:35:10.760Z,1006.91
2018-08-20T04:36:10.762Z,1006.88
2018-08-20T04:37:10.777Z,1006.91
2018-08-20T04:38:10.808Z,1006.89
2018-08-20T04:39:10.813Z,1006.88
2018-08-20T04:40:10.778Z,1006.92
2018-08-20T04:41:10.772Z,1006.88
2018-08-20T04:42:10.809Z,1006.90
2018-08-20T04:43:10.816Z,1006.87
2018-08-20T04:44:10.818Z,1006.90
2018-08-20T04:45:10.813Z,1006.88
2018-08-20T04:46:10.823Z,1006.89
2018-08-20T04:47:10.804Z,1006.88
2018-08-20T04:48:10.856Z,1006.89
2018-08-20T04:49:10.857Z,1006.86
2018-08-20T04:50:10.930Z,1006.86
2018-08-20T04:51:11.003Z,1006.93
2018-08-20T04:52:10.791Z,1006.92
2018-08-20T04:53:10.827Z,1006.89
2018-08-20T04:54:10.844Z,1006.92
2018-08-20T04:55:10.860Z,1006.94
2018-08-20T04:56:10.834Z,1006.96
2018-08-20T04:57:10.873Z,1007.00
2018-08-20T04:58:10.827Z,1006.97
2018-08-20T04:59:10.834Z,1007.02
2018-08-20T05:00:10.824Z,1006.98
2018-08-20T05:01:10.840Z,1007.01
2018-08-20T05:02:10.903Z,1007.02
2018-08-20T05:03:10.835Z,1007.03
2018-08-20T05:04:10.911Z,1007.01
2018-08-20T05:05:10.881Z,1007.02
2018-08-20T05:06:10.856Z,1007.03
2018-08-20T05:07:10.891Z,1007.08
2018-08-20T05:08:10.923Z,1007.06
2018-08-20T05:09:10.954Z,1007.11
2018-08-20T05:10:10.986Z,1007.11
2018-08-20T05:11:10.890Z,1007.12
2018-08-20T05:12:10.903Z,1007.09
2018-08-20T05:13:10.888Z,1007.15
2018-08-20T05:14:10.897Z,1007.11
2018-08-20T05:15:10.924Z,1007.12
2018-08-20T05:16:10.906Z,1007.14
2018-08-20T05:17:10.918Z,1007.11
2018-08-20T05:18:10.956Z,1007.13
2018-08-20T05:19:10.954Z,1007.18
2018-08-20T05:20:10.997Z,1007.18
2018-08-20T05:21:10.938Z,1007.25
2018-08-20T05:22:10.975Z,1007.18
2018-08-20T05:23:10.965Z,1007.23
2018-08-20T05:24:10.971Z,1007.24
2018-08-20T05:25:10.972Z,1007.24
2018-08-20T05:26:11.030Z,1007.24
2018-08-20T05:27:11.029Z,1007.25
2018-08-20T05:28:10.997Z,1007.25
2018-08-20T05:29:11.029Z,1007.24
2018-08-20T05:30:11.092Z,1007.25
2018-08-20T05:31:11.028Z,1007.27
2018-08-20T05:32:11.050Z,1007.23
2018-08-20T05:33:11.050Z,1007.26
2018-08-20T05:34:11.060Z,1007.24
2018-08-20T05:35:11.060Z,1007.20
2018-08-20T05:36:11.092Z,1007.24
2018-08-20T05:37:11.133Z,1007.21
2018-08-20T05:38:11.115Z,1007.24
2018-08-20T05:39:11.098Z,1007.23
2018-08-20T05:40:11.134Z,1007.26
2018-08-20T05:41:11.167Z,1007.32
2018-08-20T05:42:11.145Z,1007.32
2018-08-20T05:43:11.142Z,1007.29
2018-08-20T05:44:11.132Z,1007.23
2018-08-20T05:45:11.201Z,1007.27
2018-08-20T05:46:11.235Z,1007.24
2018-08-20T05:47:11.169Z,1007.23
2018-08-20T05:48:11.208Z,1007.31
2018-08-20T05:49:11.219Z,1007.30
2018-08-20T05:50:11.228Z,1007.32
2018-08-20T05:51:11.207Z,1007.34
2018-08-20T05:52:11.301Z,1007.29
2018-08-20T05:53:11.254Z,1007.31
2018-08-20T05:54:11.257Z,1007.34
2018-08-20T05:55:11.292Z,1007.32
2018-08-20T05:56:11.287Z,1007.38
2018-08-20T05:57:11.321Z,1007.36
2018-08-20T05:58:11.275Z,1007.35
2018-08-20T05:59:11.356Z,1007.38
2018-08-20T06:00:11.289Z,1007.38
2018-08-20T06:01:11.311Z,1007.37
2018-08-20T06:02:13.103Z,1007.38
2018-08-20T06:03:11.347Z,1007.37
2018-08-20T06:04:11.335Z,1007.37
2018-08-20T06:05:11.372Z,1007.46
2018-08-20T06:06:11.360Z,1007.47
2018-08-20T06:07:11.409Z,1007.45
2018-08-20T06:08:11.439Z,1007.44
2018-08-20T06:09:11.443Z,1007.50
2018-08-20T06:10:11.442Z,1007.47
2018-08-20T06:11:11.486Z,1007.59
2018-08-20T06:12:11.433Z,1007.64
2018-08-20T06:13:11.470Z,1007.57
2018-08-20T06:14:11.501Z,1007.57
2018-08-20T06:15:11.518Z,1007.72
2018-08-20T06:16:11.539Z,1007.76
2018-08-20T06:17:11.538Z,1007.82
2018-08-20T06:18:11.556Z,1007.84
2018-08-20T06:19:11.525Z,1007.67
2018-08-20T06:20:11.580Z,1007.49
2018-08-20T06:21:11.575Z,1007.41
2018-08-20T06:22:11.581Z,1007.41
2018-08-20T06:23:11.593Z,1007.48
2018-08-20T06:24:11.745Z,1007.45
2018-08-20T06:25:11.676Z,1007.54
2018-08-20T06:26:11.593Z,1007.49
2018-08-20T06:27:11.665Z,1007.50
2018-08-20T06:28:11.636Z,1007.51
2018-08-20T06:29:11.789Z,1007.50
2018-08-20T06:30:11.664Z,1007.54
2018-08-20T06:31:11.785Z,1007.49
2018-08-20T06:32:11.749Z,1007.54
2018-08-20T06:33:11.693Z,1007.60
2018-08-20T06:34:11.765Z,1007.60
2018-08-20T06:35:11.696Z,1007.59
2018-08-20T06:36:11.723Z,1007.59
2018-08-20T06:37:11.733Z,1007.60
2018-08-20T06:38:11.719Z,1007.62
2018-08-20T06:39:11.719Z,1007.64
2018-08-20T06:40:11.748Z,1007.62
2018-08-20T06:41:11.769Z,1007.64
2018-08-20T06:42:11.750Z,1007.66
2018-08-20T06:43:11.760Z,1007.63
2018-08-20T06:44:11.767Z,1007.66
2018-08-20T06:45:11.780Z,1007.66
2018-08-20T06:46:11.816Z,1007.69
2018-08-20T06:47:11.800Z,1007.71
2018-08-20T06:48:11.807Z,1007.71
2018-08-20T06:49:11.841Z,1007.66
2018-08-20T06:50:11.847Z,1007.69
2018-08-20T06:51:11.841Z,1007.73
2018-08-20T06:52:11.838Z,1007.73
2018-08-20T06:53:11.840Z,1007.71
2018-08-20T06:54:11.834Z,1007.70
2018-08-20T06:55:11.848Z,1007.71
2018-08-20T06:56:11.853Z,1007.72
2018-08-20T06:57:11.869Z,1007.73
2018-08-20T06:58:11.863Z,1007.72
2018-08-20T06:59:11.868Z,1007.71
2018-08-20T07:00:11.898Z,1007.75
2018-08-20T07:01:11.904Z,1007.71
2018-08-20T07:02:11.891Z,1007.75
2018-08-20T07:03:11.932Z,1007.68
2018-08-20T07:04:11.912Z,1007.71
2018-08-20T07:05:11.916Z,1007.70
2018-08-20T07:06:11.925Z,1007.73
2018-08-20T07:07:11.943Z,1007.69
2018-08-20T07:08:11.948Z,1007.74
2018-08-20T07:09:11.933Z,1007.75
2018-08-20T07:10:11.961Z,1007.75
2018-08-20T07:11:11.967Z,1007.75
2018-08-20T07:12:11.953Z,1007.75
2018-08-20T07:13:11.963Z,1007.78
2018-08-20T07:14:11.965Z,1007.73
2018-08-20T07:15:11.977Z,1007.74
2018-08-20T07:16:11.976Z,1007.77
2018-08-20T07:17:11.985Z,1007.78
2018-08-20T07:18:12.038Z,1007.83
2018-08-20T07:19:11.994Z,1007.81
2018-08-20T07:20:12.020Z,1007.82
2018-08-20T07:21:12.012Z,1007.86
2018-08-20T07:22:12.017Z,1007.87
2018-08-20T07:23:12.029Z,1007.92
2018-08-20T07:24:12.032Z,1007.91
2018-08-20T07:25:12.038Z,1007.91
2018-08-20T07:26:12.043Z,1007.91
2018-08-20T07:27:12.068Z,1007.88
2018-08-20T07:28:12.055Z,1007.94
2018-08-20T07:29:12.058Z,1007.93
2018-08-20T07:30:12.066Z,1007.92
2018-08-20T07:31:12.067Z,1007.98
2018-08-20T07:32:12.093Z,1007.90
2018-08-20T07:33:12.115Z,1007.97
2018-08-20T07:34:12.090Z,1007.94
2018-08-20T07:35:12.120Z,1007.92
2018-08-20T07:36:12.179Z,1007.92
2018-08-20T07:37:12.109Z,1007.91
2018-08-20T07:38:12.614Z,1007.92
2018-08-20T07:39:12.189Z,1007.89
2018-08-20T07:40:12.164Z,1007.91
2018-08-20T07:41:12.371Z,1007.92
2018-08-20T07:42:12.134Z,1007.94
2018-08-20T07:43:12.232Z,1007.98
2018-08-20T07:44:12.188Z,1007.98
2018-08-20T07:45:12.151Z,1007.97
2018-08-20T07:46:12.183Z,1007.98
2018-08-20T07:47:12.229Z,1008.03
2018-08-20T07:48:12.191Z,1007.98
2018-08-20T07:49:12.175Z,1008.00
2018-08-20T07:50:20.882Z,1007.99
2018-08-20T07:52:05.622Z,1007.99
2018-08-20T07:53:05.595Z,1007.98
2018-08-20T07:54:05.602Z,1007.97
2018-08-20T07:55:05.606Z,1007.96
2018-08-20T07:56:05.630Z,1007.95
2018-08-20T07:57:14.271Z,1007.94
2018-08-20T07:58:59.045Z,1007.97
2018-08-20T07:59:59.027Z,1007.96
2018-08-20T08:00:59.036Z,1007.95
2018-08-20T08:01:59.049Z,1007.96
2018-08-20T08:02:59.046Z,1007.99
2018-08-20T08:03:59.078Z,1007.97
2018-08-20T08:04:59.055Z,1007.96
2018-08-20T08:05:59.078Z,1007.96
2018-08-20T08:06:59.064Z,1007.96
2018-08-20T08:07:59.086Z,1007.99
2018-08-20T08:08:59.093Z,1007.98
2018-08-20T08:09:59.106Z,1007.99
2018-08-20T08:10:59.092Z,1008.00
2018-08-20T08:11:59.106Z,1008.03
2018-08-20T08:12:59.107Z,1008.00
2018-08-20T08:13:59.106Z,1007.99
2018-08-20T08:14:59.112Z,1007.99
2018-08-20T08:15:59.117Z,1008.03
2018-08-20T08:16:59.119Z,1008.04
2018-08-20T08:17:59.134Z,1008.08
2018-08-20T08:18:59.130Z,1008.06
2018-08-20T08:19:59.154Z,1008.07
2018-08-20T08:20:59.149Z,1008.07
2018-08-20T08:21:59.145Z,1008.07
2018-08-20T08:22:59.161Z,1008.08
2018-08-20T08:23:59.193Z,1008.09
2018-08-20T08:24:59.177Z,1008.07
2018-08-20T08:25:59.175Z,1008.08
2018-08-20T08:26:59.221Z,1008.03
2018-08-20T08:27:59.186Z,1008.05
2018-08-20T08:28:59.194Z,1008.05
2018-08-20T08:29:59.202Z,1008.08
2018-08-20T08:30:59.210Z,1008.07
2018-08-20T08:31:59.224Z,1008.06
2018-08-20T08:32:59.214Z,1008.00
2018-08-20T08:33:59.215Z,1008.04
2018-08-20T08:34:59.224Z,1007.97
2018-08-20T08:35:59.231Z,1008.01
2018-08-20T08:36:59.247Z,1007.99
2018-08-20T08:37:59.310Z,1007.99
2018-08-20T08:38:59.255Z,1008.00
2018-08-20T08:39:59.257Z,1007.96
2018-08-20T08:40:59.284Z,1007.94
2018-08-20T08:41:59.270Z,1007.94
2018-08-20T08:42:59.277Z,1007.96
2018-08-20T08:43:59.289Z,1007.92
2018-08-20T08:44:59.288Z,1007.94
2018-08-20T08:45:59.296Z,1007.90
2018-08-20T08:46:59.295Z,1008.00
2018-08-20T08:47:59.331Z,1007.95
2018-08-20T08:48:59.331Z,1007.96
2018-08-20T08:49:59.327Z,1007.95
2018-08-20T08:50:59.374Z,1007.96
2018-08-20T08:51:59.329Z,1007.95
2018-08-20T08:52:59.333Z,1007.96
2018-08-20T08:53:59.347Z,1007.93
2018-08-20T08:54:59.348Z,1007.93
2018-08-20T08:55:59.376Z,1007.98
2018-08-20T08:56:59.356Z,1007.98
2018-08-20T08:57:59.362Z,1007.99
2018-08-20T08:58:59.375Z,1008.00
2018-08-20T08:59:59.378Z,1007.98
2018-08-20T09:00:59.392Z,1008.01
2018-08-20T09:01:59.436Z,1008.00
2018-08-20T09:02:59.399Z,1008.01
2018-08-20T09:03:59.418Z,1008.02
2018-08-20T09:04:59.410Z,1007.98
2018-08-20T09:05:59.431Z,1008.03
2018-08-20T09:06:59.427Z,1007.98
2018-08-20T09:07:59.453Z,1007.95
2018-08-20T09:08:59.436Z,1007.99
2018-08-20T09:09:59.430Z,1007.96
2018-08-20T09:10:59.445Z,1007.97
2018-08-20T09:11:59.459Z,1007.95
2018-08-20T09:12:59.476Z,1007.99
2018-08-20T09:13:59.506Z,1007.98
2018-08-20T09:14:59.479Z,1007.95
2018-08-20T09:15:59.483Z,1007.96
2018-08-20T09:16:59.557Z,1007.93
2018-08-20T09:17:59.588Z,1007.90
2018-08-20T09:18:59.542Z,1007.90
2018-08-20T09:19:59.548Z,1007.94
2018-08-20T09:20:59.518Z,1007.83
2018-08-20T09:21:59.537Z,1007.84
2018-08-20T09:22:59.536Z,1007.83
2018-08-20T09:23:59.532Z,1007.88
2018-08-20T09:24:59.595Z,1007.83
2018-08-20T09:25:59.535Z,1007.83
2018-08-20T09:26:59.549Z,1007.89
2018-08-20T09:27:59.588Z,1007.87
2018-08-20T09:28:59.589Z,1007.87
2018-08-20T09:29:59.571Z,1007.85
2018-08-20T09:30:59.584Z,1007.87
2018-08-20T09:31:59.672Z,1007.90
2018-08-20T09:32:59.581Z,1007.84
2018-08-20T09:33:59.602Z,1007.90
2018-08-20T09:34:59.612Z,1007.89
2018-08-20T09:35:59.610Z,1007.85
2018-08-20T09:36:59.641Z,1007.86
2018-08-20T09:37:59.612Z,1007.87
2018-08-20T09:38:59.623Z,1007.86
2018-08-20T09:39:59.635Z,1007.84
2018-08-20T09:40:59.644Z,1007.82
2018-08-20T09:41:59.686Z,1007.79
2018-08-20T09:42:59.651Z,1007.78
2018-08-20T09:43:59.711Z,1007.73
2018-08-20T09:44:59.685Z,1007.77
2018-08-20T09:45:59.719Z,1007.77
2018-08-20T09:46:59.730Z,1007.74
2018-08-20T09:47:59.804Z,1007.70
2018-08-20T09:48:59.745Z,1007.70
2018-08-20T09:49:59.687Z,1007.71
2018-08-20T09:50:59.707Z,1007.71
2018-08-20T09:51:59.787Z,1007.71
2018-08-20T09:52:59.929Z,1007.71
2018-08-20T09:53:59.981Z,1007.74
2018-08-20T09:54:59.729Z,1007.72
2018-08-20T09:55:59.754Z,1007.71
2018-08-20T09:56:59.731Z,1007.73
2018-08-20T09:57:59.745Z,1007.68
2018-08-20T09:58:59.818Z,1007.70
2018-08-20T09:59:59.751Z,1007.68
2018-08-20T10:02:00.354Z,1007.66
2018-08-20T10:02:59.791Z,1007.63
2018-08-20T10:03:59.783Z,1007.68
2018-08-20T10:04:59.786Z,1007.68
2018-08-20T10:05:59.799Z,1007.70
2018-08-20T10:06:59.790Z,1007.68
2018-08-20T10:07:59.813Z,1007.69
2018-08-20T10:08:59.831Z,1007.66
2018-08-20T10:09:59.829Z,1007.69
2018-08-20T10:10:59.846Z,1007.68
2018-08-20T10:11:59.853Z,1007.68
2018-08-20T10:12:59.849Z,1007.66
2018-08-20T10:13:59.845Z,1007.65
2018-08-20T10:14:59.844Z,1007.64
2018-08-20T10:15:59.870Z,1007.58
2018-08-20T10:16:59.864Z,1007.60
2018-08-20T10:17:59.876Z,1007.62
2018-08-20T10:18:59.874Z,1007.60
2018-08-20T10:19:59.876Z,1007.58
2018-08-20T10:20:59.887Z,1007.60
2018-08-20T10:21:59.892Z,1007.58
2018-08-20T10:22:59.908Z,1007.52
2018-08-20T10:23:59.909Z,1007.53
2018-08-20T10:24:59.920Z,1007.53
2018-08-20T10:25:59.926Z,1007.51
2018-08-20T10:27:08.588Z,1007.49
2018-08-20T10:28:53.358Z,1007.43
2018-08-20T10:29:53.343Z,1007.43
2018-08-20T10:30:53.354Z,1007.43
2018-08-20T10:31:53.359Z,1007.44
2018-08-20T10:32:53.362Z,1007.42
2018-08-20T10:33:53.367Z,1007.41
2018-08-20T10:34:53.389Z,1007.38
2018-08-20T10:35:53.385Z,1007.33
2018-08-20T10:36:53.391Z,1007.38
2018-08-20T10:37:53.570Z,1007.34
2018-08-20T10:38:53.406Z,1007.35
2018-08-20T10:39:53.420Z,1007.40
2018-08-20T10:40:53.422Z,1007.35
2018-08-20T10:41:53.426Z,1007.32
2018-08-20T10:42:53.436Z,1007.32
2018-08-20T10:43:53.439Z,1007.31
2018-08-20T10:44:53.444Z,1007.32
2018-08-20T10:45:53.448Z,1007.29
2018-08-20T10:46:53.458Z,1007.33
2018-08-20T10:47:53.459Z,1007.28
2018-08-20T10:48:53.468Z,1007.27
2018-08-20T10:49:53.490Z,1007.27
2018-08-20T10:50:53.482Z,1007.31
2018-08-20T10:51:53.494Z,1007.32
2018-08-20T10:52:53.493Z,1007.32
2018-08-20T10:53:53.520Z,1007.33
2018-08-20T10:54:53.510Z,1007.32
2018-08-20T10:55:53.520Z,1007.28
2018-08-20T10:56:53.524Z,1007.33
2018-08-20T10:57:53.540Z,1007.32
2018-08-20T10:58:53.541Z,1007.34
2018-08-20T10:59:53.547Z,1007.34
2018-08-20T11:00:53.552Z,1007.35
2018-08-20T11:01:53.576Z,1007.29
2018-08-20T11:02:53.566Z,1007.30
2018-08-20T11:03:53.579Z,1007.24
2018-08-20T11:04:53.588Z,1007.24
2018-08-20T11:05:53.584Z,1007.20
2018-08-20T11:06:53.602Z,1007.20
2018-08-20T11:07:53.599Z,1007.20
2018-08-20T11:08:53.611Z,1007.19
2018-08-20T11:09:53.616Z,1007.19
2018-08-20T11:10:53.687Z,1007.18
2018-08-20T11:11:53.633Z,1007.20
2018-08-20T11:12:53.647Z,1007.19
2018-08-20T11:13:53.645Z,1007.19
2018-08-20T11:14:53.653Z,1007.18
2018-08-20T11:15:53.659Z,1007.21
2018-08-20T11:16:53.666Z,1007.20
2018-08-20T11:17:53.672Z,1007.16
2018-08-20T11:18:53.765Z,1007.19
2018-08-20T11:19:53.684Z,1007.27
2018-08-20T11:20:53.697Z,1007.19
2018-08-20T11:21:53.702Z,1007.15
2018-08-20T11:22:53.720Z,1007.16
2018-08-20T11:23:53.734Z,1007.15
2018-08-20T11:24:53.731Z,1007.13
2018-08-20T11:25:53.728Z,1007.12
2018-08-20T11:26:53.785Z,1007.14
2018-08-20T11:27:53.743Z,1007.17
2018-08-20T11:28:53.749Z,1007.16
2018-08-20T11:29:53.759Z,1007.15
2018-08-20T11:30:53.778Z,1007.09
2018-08-20T11:31:53.775Z,1007.10
2018-08-20T11:32:53.784Z,1007.10
2018-08-20T11:33:53.782Z,1007.07
2018-08-20T11:34:53.792Z,1007.12
2018-08-20T11:35:53.806Z,1007.11
2018-08-20T11:36:53.808Z,1007.07
2018-08-20T11:37:53.815Z,1007.11
2018-08-20T11:38:53.824Z,1007.12
2018-08-20T11:39:53.825Z,1007.08
2018-08-20T11:40:53.850Z,1007.10
2018-08-20T11:41:53.845Z,1007.09
2018-08-20T11:42:53.846Z,1007.04
2018-08-20T11:43:53.856Z,1007.00
2018-08-20T11:44:53.867Z,1007.02
2018-08-20T11:45:53.870Z,1007.00
2018-08-20T11:46:53.885Z,1006.98
2018-08-20T11:47:53.893Z,1006.95
2018-08-20T11:48:53.895Z,1006.94
2018-08-20T11:49:53.909Z,1006.97
2018-08-20T11:50:53.910Z,1006.97
2018-08-20T11:51:53.932Z,1006.98
2018-08-20T11:52:53.921Z,1007.02
2018-08-20T11:53:53.921Z,1007.02
2018-08-20T11:54:53.940Z,1006.95
2018-08-20T11:55:53.941Z,1006.85
2018-08-20T11:56:53.945Z,1006.85
2018-08-20T11:57:53.963Z,1006.83
2018-08-20T11:58:53.980Z,1006.82
2018-08-20T11:59:53.970Z,1006.86
2018-08-20T12:00:53.978Z,1006.82
2018-08-20T12:01:54.051Z,1006.82
2018-08-20T12:02:53.993Z,1006.81
2018-08-20T12:03:54.002Z,1006.79
2018-08-20T12:04:54.005Z,1006.79
2018-08-20T12:05:54.012Z,1006.81
2018-08-20T12:06:54.036Z,1006.80
2018-08-20T12:07:54.033Z,1006.85
2018-08-20T12:08:54.038Z,1006.86
2018-08-20T12:09:54.046Z,1006.87
2018-08-20T12:10:54.054Z,1006.84
2018-08-20T12:11:54.054Z,1006.80
2018-08-20T12:12:54.066Z,1006.77
2018-08-20T12:13:54.077Z,1006.82
2018-08-20T12:14:54.080Z,1006.77
2018-08-20T12:15:54.092Z,1006.78
2018-08-20T12:16:54.096Z,1006.83
2018-08-20T12:17:54.101Z,1006.77
2018-08-20T12:18:54.116Z,1006.77
2018-08-20T12:19:54.124Z,1006.87
2018-08-20T12:20:54.137Z,1006.83
2018-08-20T12:21:54.141Z,1006.82
2018-08-20T12:22:54.144Z,1006.86
2018-08-20T12:23:54.149Z,1006.83
2018-08-20T12:24:54.161Z,1006.79
2018-08-20T12:25:54.169Z,1006.79
2018-08-20T12:26:54.173Z,1006.81
2018-08-20T12:27:54.180Z,1006.77
2018-08-20T12:28:54.188Z,1006.82